This site, now in its 15th season, is a labour of love and fun from one of Ottawa's most avid time trialists and number crunchers. It adheres to and is permitted by the laws of Canada, promotes the objectives of every bicycle club whose results are shown, and is donated free of charge by myself for your enjoyment and usage. If you would like results from series you ride in to be shown here, give me (celia@drmath.ca) a shout!


Index Page
ATT OTT WTT AATT CFCTT VVVTT
Help resultformat:
Case-sensitive

OBC Open TT Series - 1994-May-05 - 15km (Rockliffe Pkwy) (EvtFactor = 0.9035)

Weather (18:00): Cloudy. Temp.: 19.9C, Humidity: 27%, DewPoint: 0.6C, Wind: S 9km/h, Pressure: 99.52kPa, Visibility: 40.2km.
Weather (19:00): Mostly Cloudy. Temp.: 19.2C, Humidity: 27%, DewPoint: -0.2C, Wind: 0km/h, Pressure: 99.49kPa, Visibility: 32.2km.
Weather (20:00): Cloudy. Temp.: 18.7C, Humidity: 27%, DewPoint: -0.5C, Wind: 0km/h, Pressure: 99.49kPa, Visibility: 32.2km.

Send photos with description (when/where/what) of yourself on or off of bike to celia@drmath.ca

 
 

BESTS?
 
1 Roy, Patrick OBC 20:08 44.702 1/44 OVAM 1/8  
2 Hunter, Philip --- 20:12 44.554 2/44 OSEM 1/15 1.3727
3 Georgas, Chris OBC 21:08 42.587 3/44 OVBM 1/8  
4 Alberti, Lazlo --- 21:10 42.520 4/44 OSEM 2/15  
5 Hinz, Richard OBC 21:12 42.453 5/44 OVAM 2/8 1.1796
6 Johns, Mike --- 21:24 42.056 6/44 OSEM 3/15 1.3989
7 MacDonald, Ryan --- 21:35 41.699 7/44 OSEM 4/15 1.2260
8 Simpson, Bob OBC 21:39 41.570 8/44 OVBM 2/8 1.5459
9 Archambault, Marc --- 21:57 41.002 9/44 OSEM 5/15 1.1579
10 Schuck, Peter  OBC 21:58 40.971 10/44 OVAM 3/8 1.1379
11 Pazdzior, Ellen  OBC 22:14 40.480 11/44 OVAF 1/4  
12 Campbell, Colin  OBC 22:21 40.268 12/44 OSEM 6/15 1.2382
13 Leach, Mike --- 22:28 40.059 13/44 OSEM 7/15 1.3504
14 Martignago, Mike OBC 22:29 40.030 14/44 OVAM 4/8 1.2522
15 Rouse, Joe --- 22:36 39.823 15/44 OSEM 8/15  
16 Moerman, Bram  OBC 22:39 39.735 16/44 OVBM 3/8 0.9565
17 Arts, Michael --- 22:42 39.648 17/44 OJUM 1/4 1.2343
18 MacMillan, Trevor OBC 22:46 39.531 18/44 OSEM 9/15 1.2259
19 Buffa, Alex  OBC 22:48 39.474 19/44 OSEM 10/15 1.2740
20 Budd, Daniel OBC 22:50 39.416 20/44 OSEM 11/15 1.4232
21 Berthelet, David OBC 23:13 38.765 21/44 OVBM 4/8 1.0436
22 St-Amour, Pierre OBC 23:16 38.682 22/44 OVAM 5/8 1.0151
23 Austen, Ian  OBC 23:22 38.516 23/44 OVAM 6/8 1.1085
24 Davidson, Carson --- 23:30 38.298 24/44 OSEM 12/15  
Pritlove, James --- 23:30 38.298 24/44 OSEM 12/15 1.2137
26 Fransham, Richard OBC 23:33 38.217 26/44 OVBM 5/8 1.2523
27 Tamborine, Don --- 23:36 38.136 27/44 OVBM 6/8  
28 Stewart, Rob OBC 23:46 37.868 28/44 OVAM 7/8 1.1802
29 McKay, Shelley --- 23:50 37.762 29/44 OSEF 1/3 1.2248
30 Somogyi, Michel OBC 23:55 37.631 30/44 OJUM 2/4 1.4176
31 Csorgo, Lilla --- 24:00 37.500 31/44 OSEF 2/3  
32 Revesz, Erika  --- 24:11 37.216 32/44 OVAF 2/4  
33 Romkey, Gary OBC 24:32 36.685 33/44 OVBM 7/8  
34 Callum, John ABC 24:33 36.660 34/44 OJUM 3/4 1.4132
35 Polischuk, Susan --- 24:48 36.290 35/44 OSEF 3/3 1.2270
36 Weiman, David --- 24:53 36.169 36/44 OSEM 14/15 1.1452
37 Aller, Mo OBC 24:57 36.072 37/44 OVCM 1/1  
38 McInnis, Celia  OBC 25:32 35.248 38/44 OVAF 3/4 1.8392
39 Fortey, Brian ABC 25:34 35.202 39/44 OJUM 4/4 1.5000
40 Green, Richard OBC 25:35 35.179 40/44 OVBM 8/8 1.3156
41 Adams, John --- 25:50 34.839 41/44 OSEM 15/15 1.1480
42 Ajersch, Mary  OBC 25:56 34.704 42/44 OVBF 1/1 1.1243
43 James, Peter OBC 26:01 34.593 43/44 OVAM 8/8 1.1702
44 Montserrat, Fabienne OBC 26:51 33.520 44/44 OVAF 4/4  
 
Average Speed of all of the above 44 finishes (660km in 17:07:00):38.559
>>>Average of the Average Speeds for these 44 finishes38.742<<<
 

The number of data records shown above is 44
The server processing of your query took: 0 wallclock secs ( 0.15 usr + 0.02 sys = 0.17 CPU)

Thanks to our Helpers: Laurence Couture, Michael Lau, Jim Glover, Craig Statchuk.

     


Apr 1 (Good Friday) Apr 14 Apr 21 Apr 28
May 3
  May 5  
May 10 May 12 (22km) May 15 (40km) May 17 May 19 May 24 May 24 (10km) May 26 (cancelled) May 29 (40km)
Jun 2 Jun 5 (38km) Jun 7 Jun 9 Jun 14 (40km) Jun 14 Jun 16 Jun 21 Jun 21 Jun 23 Jun 26 (40km/80km) Jun 28 (40km) Jun 28 Jun 29
Jul 5 Jul 6 Jul 7 Jul 10 (22km) Jul 12 Jul 13 Jul 14 Jul 19 Jul 20 Jul 21 Jul 24 (38km) Jul 26 Jul 27 Jul 28
Aug 2 Aug 3 Aug 9 Aug 10 Aug 11 Aug 14 (40km/80km) Aug 16 Aug 17 Aug 18 Aug 20 (22km) Aug 23 Aug 24 Aug 28 (38km) Aug 30 (Invitational) Aug 31
Sep 1 Sep 6 Sep 8 Sep 13 Sep 20 Sep 25 (40km)

OTT Rankings
Best       Best by category
WTT Rankings for OBC Members
5 Best 15km     5 Best 15km by category
OBC Member Best Three 15km Rankings
Overall     by category
OBC BAR Ranking
Overall     by category     Rider "Consistency-Graph"
ABC BAR Ranking
Overall     by category     Rider "Consistency-Graph"
Other years
TT Calculator All TT People All TT events
ABC Home VVV Home
CKAP GOLD MEDAL
Other Links

Please send your comments and suggestions to: Celia McInnis
Copyright © 1998-2011 Celia McInnis. All rights reserved. Links are welcomed.